createdAt,value
2022-10-29T00:00:51.629Z,7.83
2022-10-29T00:03:20.663Z,8.17
2022-10-29T00:05:59.711Z,7.70
2022-10-29T00:08:28.192Z,7.93
2022-10-29T00:10:58.199Z,7.87
2022-10-29T00:13:26.049Z,8.57
2022-10-29T00:15:53.806Z,8.53
2022-10-29T00:18:21.521Z,7.80
2022-10-29T00:20:49.725Z,8.70
2022-10-29T00:23:17.611Z,8.20
2022-10-29T00:25:45.573Z,8.60
2022-10-29T00:28:15.093Z,8.00
2022-10-29T00:30:42.846Z,8.40
2022-10-29T00:33:10.743Z,9.03
2022-10-29T00:35:38.519Z,8.27
2022-10-29T00:38:06.810Z,8.40
2022-10-29T00:40:37.754Z,8.43
2022-10-29T00:43:17.630Z,8.30
2022-10-29T00:45:50.577Z,9.37
2022-10-29T00:48:18.740Z,8.13
2022-10-29T00:50:48.881Z,8.60
2022-10-29T00:53:24.913Z,8.10
2022-10-29T00:55:52.808Z,7.90
2022-10-29T00:58:23.534Z,8.80
2022-10-29T01:00:51.322Z,8.37
2022-10-29T01:03:19.287Z,8.90
2022-10-29T01:05:47.968Z,8.60
2022-10-29T01:08:17.492Z,8.37
2022-10-29T01:10:59.002Z,8.27
2022-10-29T01:13:41.085Z,8.07
2022-10-29T01:16:16.387Z,9.17
2022-10-29T01:18:55.455Z,8.60
2022-10-29T01:21:43.403Z,8.80
2022-10-29T01:24:50.578Z,8.30
2022-10-29T01:27:58.419Z,8.90
2022-10-29T01:31:06.653Z,8.93
2022-10-29T01:33:39.747Z,9.13
2022-10-29T01:36:17.044Z,8.50
2022-10-29T01:38:52.640Z,9.63
2022-10-29T01:41:26.966Z,9.67
2022-10-29T01:44:01.693Z,8.37
2022-10-29T01:46:38.135Z,8.83
2022-10-29T01:49:12.860Z,8.30
2022-10-29T01:51:41.482Z,8.23
2022-10-29T01:54:12.022Z,10.90
2022-10-29T01:56:41.423Z,9.47
2022-10-29T01:59:22.977Z,9.53
2022-10-29T02:02:14.542Z,9.30
2022-10-29T02:05:00.302Z,9.43
2022-10-29T02:07:39.295Z,8.87
2022-10-29T02:10:16.161Z,9.17
2022-10-29T02:12:49.939Z,9.67
2022-10-29T02:15:20.704Z,9.67
2022-10-29T02:17:50.411Z,9.83
2022-10-29T02:20:18.888Z,9.67
2022-10-29T02:22:46.731Z,9.07
2022-10-29T02:25:15.319Z,9.43
2022-10-29T02:27:43.069Z,9.27
2022-10-29T02:30:11.712Z,9.27
2022-10-29T02:32:39.526Z,9.27
2022-10-29T02:35:10.033Z,9.00
2022-10-29T02:37:37.827Z,9.60
2022-10-29T02:40:06.693Z,9.50
2022-10-29T02:42:34.729Z,9.87
2022-10-29T02:45:02.623Z,9.80
2022-10-29T02:47:30.561Z,9.27
2022-10-29T02:49:58.405Z,9.30
2022-10-29T02:52:27.861Z,9.63
2022-10-29T02:54:55.667Z,9.03
2022-10-29T02:57:24.990Z,9.13
2022-10-29T02:59:52.851Z,9.70
2022-10-29T03:02:23.993Z,9.27
2022-10-29T03:04:53.460Z,9.00
2022-10-29T03:07:21.247Z,9.13
2022-10-29T03:09:50.379Z,9.57
2022-10-29T03:12:18.100Z,8.93
2022-10-29T03:14:46.083Z,8.77
2022-10-29T03:17:13.835Z,9.27
2022-10-29T03:19:41.697Z,9.93
2022-10-29T03:22:09.892Z,9.60
2022-10-29T03:24:38.139Z,9.20
2022-10-29T03:27:07.222Z,9.40
2022-10-29T03:29:34.948Z,9.23
2022-10-29T03:32:03.483Z,8.63
2022-10-29T03:34:31.459Z,8.90
2022-10-29T03:36:59.193Z,10.00
2022-10-29T03:39:28.292Z,9.30
2022-10-29T03:41:56.097Z,9.47
2022-10-29T03:44:25.194Z,8.50
2022-10-29T03:46:52.909Z,9.07
2022-10-29T03:49:20.638Z,9.13
2022-10-29T03:51:48.336Z,8.90
2022-10-29T03:54:16.309Z,9.10
2022-10-29T03:56:44.100Z,10.03
2022-10-29T03:59:11.832Z,9.13
2022-10-29T04:01:41.053Z,9.23
2022-10-29T04:04:08.914Z,9.20
2022-10-29T04:06:36.608Z,9.63
2022-10-29T04:09:04.646Z,8.90
2022-10-29T04:11:32.440Z,9.83
2022-10-29T04:14:00.149Z,9.10
2022-10-29T04:16:27.876Z,9.30
2022-10-29T04:18:56.982Z,9.03
2022-10-29T04:24:32.444Z,8.43
2022-10-29T04:29:47.861Z,8.77
2022-10-29T04:32:15.624Z,8.13
2022-10-29T04:34:44.720Z,8.63
2022-10-29T04:37:12.510Z,9.40
2022-10-29T04:39:40.252Z,7.63
2022-10-29T04:42:08.080Z,8.03
2022-10-29T04:44:35.926Z,7.77
2022-10-29T04:47:03.767Z,8.43
2022-10-29T04:49:31.630Z,6.93
2022-10-29T04:52:00.860Z,8.10
2022-10-29T04:54:28.714Z,7.97
2022-10-29T04:56:56.440Z,8.13
2022-10-29T04:59:24.347Z,7.43
2022-10-29T05:01:52.137Z,8.23
2022-10-29T05:04:19.935Z,7.50
2022-10-29T05:06:47.701Z,7.73
2022-10-29T05:09:16.817Z,7.67
2022-10-29T05:11:44.777Z,7.87
2022-10-29T05:14:12.595Z,7.30
2022-10-29T05:16:40.444Z,7.83
2022-10-29T05:19:08.129Z,7.97
2022-10-29T05:21:35.982Z,7.50
2022-10-29T05:24:03.830Z,7.77
2022-10-29T05:26:33.194Z,7.40
2022-10-29T05:29:00.942Z,8.10
2022-10-29T05:31:28.712Z,7.27
2022-10-29T05:33:56.538Z,7.40
2022-10-29T05:36:24.439Z,7.30
2022-10-29T05:38:52.249Z,7.70
2022-10-29T05:41:20.092Z,7.97
2022-10-29T05:43:51.079Z,7.57
2022-10-29T05:46:19.013Z,7.70
2022-10-29T05:48:46.808Z,7.83
2022-10-29T05:51:14.587Z,8.03
2022-10-29T05:53:42.313Z,7.60
2022-10-29T05:56:10.045Z,8.07
2022-10-29T05:58:37.817Z,8.20
2022-10-29T06:01:08.969Z,7.87
2022-10-29T06:03:37.150Z,8.47
2022-10-29T06:06:05.341Z,7.57
2022-10-29T06:08:33.228Z,7.70
2022-10-29T06:11:02.801Z,7.33
2022-10-29T06:13:31.133Z,7.23
2022-10-29T06:16:00.570Z,7.60
2022-10-29T06:18:29.709Z,7.30
2022-10-29T06:21:00.342Z,8.80
2022-10-29T06:23:28.342Z,7.40
2022-10-29T06:25:56.096Z,8.43
2022-10-29T06:28:23.896Z,7.87
2022-10-29T06:30:52.272Z,7.70
2022-10-29T06:33:20.536Z,7.80
2022-10-29T06:35:49.851Z,8.17
2022-10-29T06:38:17.616Z,8.90
2022-10-29T06:40:53.389Z,9.17
2022-10-29T06:43:21.536Z,7.93
2022-10-29T06:45:49.959Z,8.00
2022-10-29T06:48:21.685Z,7.90
2022-10-29T06:50:51.490Z,7.80
2022-10-29T06:53:19.487Z,7.40
2022-10-29T06:55:47.403Z,7.70
2022-10-29T06:58:17.073Z,7.87
2022-10-29T07:00:45.622Z,8.03
2022-10-29T07:03:14.274Z,7.47
2022-10-29T07:05:42.040Z,7.70
2022-10-29T07:08:11.194Z,7.57
2022-10-29T07:10:39.664Z,6.90
2022-10-29T07:13:07.439Z,7.63
2022-10-29T07:15:35.306Z,7.87
2022-10-29T07:18:05.216Z,8.43
2022-10-29T07:20:34.687Z,7.30
2022-10-29T07:23:02.819Z,7.43
2022-10-29T07:25:32.758Z,7.23
2022-10-29T07:28:04.252Z,8.13
2022-10-29T07:30:32.200Z,7.43
2022-10-29T07:32:59.985Z,8.00
2022-10-29T07:35:27.832Z,7.93
2022-10-29T07:38:03.637Z,8.03
2022-10-29T07:40:40.212Z,10.20
2022-10-29T07:43:08.115Z,8.17
2022-10-29T07:45:35.957Z,7.23
2022-10-29T07:48:07.165Z,6.57
2022-10-29T07:50:35.265Z,7.13
2022-10-29T07:53:04.402Z,7.67
2022-10-29T07:55:32.311Z,7.60
2022-10-29T07:58:03.350Z,7.17
2022-10-29T08:00:32.320Z,11.40
2022-10-29T08:03:00.181Z,13.67
2022-10-29T08:05:29.457Z,14.10
2022-10-29T08:07:58.285Z,12.60
2022-10-29T08:10:27.174Z,11.77
2022-10-29T08:12:56.802Z,12.90
2022-10-29T08:15:27.572Z,23.00
2022-10-29T08:17:55.648Z,14.43
2022-10-29T08:20:25.195Z,12.27
2022-10-29T08:22:52.971Z,9.10
2022-10-29T08:25:21.072Z,7.60
2022-10-29T08:27:59.290Z,7.50
2022-10-29T08:30:28.861Z,7.43
2022-10-29T08:32:57.058Z,7.20
2022-10-29T08:35:25.325Z,6.90
2022-10-29T08:37:53.157Z,8.03
2022-10-29T08:40:30.005Z,7.50
2022-10-29T08:43:26.428Z,7.13
2022-10-29T08:45:56.696Z,7.40
2022-10-29T08:48:34.264Z,8.30
2022-10-29T08:51:10.724Z,8.70
2022-10-29T08:53:42.298Z,7.47
2022-10-29T08:56:16.937Z,7.43
2022-10-29T08:58:53.589Z,8.80
2022-10-29T09:01:24.653Z,7.37
2022-10-29T09:03:52.772Z,8.23
2022-10-29T09:06:29.794Z,8.30
2022-10-29T09:09:18.141Z,8.60
2022-10-29T09:12:02.340Z,7.27
2022-10-29T09:14:47.177Z,7.57
2022-10-29T09:17:27.998Z,8.63
2022-10-29T09:20:23.222Z,8.53
2022-10-29T09:23:02.977Z,8.20
2022-10-29T09:25:34.451Z,8.23
2022-10-29T09:28:18.385Z,8.30
2022-10-29T09:30:58.534Z,7.80
2022-10-29T09:33:28.806Z,7.37
2022-10-29T09:35:59.740Z,8.00
2022-10-29T09:38:32.828Z,7.20
2022-10-29T09:41:03.141Z,8.17
2022-10-29T09:43:39.754Z,7.57
2022-10-29T09:46:14.501Z,7.63
2022-10-29T09:48:55.438Z,7.37
2022-10-29T09:51:34.556Z,7.63
2022-10-29T09:54:02.888Z,8.00
2022-10-29T09:56:30.850Z,7.73
2022-10-29T09:59:18.451Z,7.70
2022-10-29T10:01:48.310Z,7.27
2022-10-29T10:04:23.627Z,7.23
2022-10-29T10:07:07.275Z,7.63
2022-10-29T10:09:59.607Z,7.73
2022-10-29T10:12:32.171Z,7.27
2022-10-29T10:15:09.156Z,7.40
2022-10-29T10:17:59.425Z,7.77
2022-10-29T10:20:40.877Z,7.80
2022-10-29T10:23:23.613Z,7.70
2022-10-29T10:25:52.591Z,7.70
2022-10-29T10:28:22.858Z,8.30
2022-10-29T10:31:13.887Z,8.43
2022-10-29T10:33:53.119Z,7.97
2022-10-29T10:36:26.213Z,7.30
2022-10-29T10:38:56.309Z,7.80
2022-10-29T10:41:26.840Z,8.23
2022-10-29T10:44:00.264Z,7.93
2022-10-29T10:46:31.729Z,7.90
2022-10-29T10:49:07.414Z,8.17
2022-10-29T10:51:38.537Z,8.10
2022-10-29T10:54:27.342Z,8.50
2022-10-29T10:57:00.521Z,8.63
2022-10-29T10:59:41.061Z,8.17
2022-10-29T11:02:21.664Z,8.40
2022-10-29T11:04:53.013Z,7.80
2022-10-29T11:07:24.870Z,7.63
2022-10-29T11:09:56.689Z,7.80
2022-10-29T11:12:31.934Z,7.50
2022-10-29T11:15:05.154Z,8.17
2022-10-29T11:17:40.504Z,8.10
2022-10-29T11:20:16.974Z,7.33
2022-10-29T11:22:55.814Z,7.33
2022-10-29T11:25:29.696Z,7.90
2022-10-29T11:28:04.636Z,7.13
2022-10-29T11:30:41.190Z,7.30
2022-10-29T11:33:19.048Z,7.70
2022-10-29T11:35:51.493Z,7.43
2022-10-29T11:38:27.254Z,6.70
2022-10-29T11:41:04.726Z,6.37
2022-10-29T11:43:34.110Z,6.00
2022-10-29T11:46:12.467Z,7.40
2022-10-29T11:48:52.036Z,6.87
2022-10-29T11:51:33.207Z,6.60
2022-10-29T11:54:07.662Z,6.60
2022-10-29T11:56:48.796Z,7.10
2022-10-29T11:59:28.413Z,6.30
2022-10-29T12:02:08.622Z,6.83
2022-10-29T12:04:42.327Z,6.80
2022-10-29T12:07:23.914Z,6.60
2022-10-29T12:10:28.755Z,6.43
2022-10-29T12:13:04.429Z,6.40
2022-10-29T12:15:38.050Z,6.53
2022-10-29T12:18:17.749Z,5.87
2022-10-29T12:21:16.115Z,6.40
2022-10-29T12:23:55.383Z,6.20
2022-10-29T12:26:31.567Z,6.33
2022-10-29T12:29:11.426Z,6.93
2022-10-29T12:31:46.706Z,6.80
2022-10-29T12:34:23.069Z,6.13
2022-10-29T12:36:59.340Z,6.50
2022-10-29T12:39:30.365Z,6.53
2022-10-29T12:42:04.268Z,6.40
2022-10-29T12:44:45.020Z,6.03
2022-10-29T12:47:18.367Z,6.37
2022-10-29T12:49:56.408Z,6.13
2022-10-29T12:52:30.452Z,5.67
2022-10-29T12:55:00.840Z,5.20
2022-10-29T12:57:35.278Z,6.60
2022-10-29T13:00:48.507Z,6.83
2022-10-29T13:03:54.486Z,6.37
2022-10-29T13:06:47.001Z,5.40
2022-10-29T13:09:19.934Z,5.90
2022-10-29T13:11:49.718Z,5.80
2022-10-29T13:14:25.311Z,6.00
2022-10-29T13:16:54.711Z,6.17
2022-10-29T13:19:45.536Z,5.40
2022-10-29T13:22:35.548Z,5.47
2022-10-29T13:25:43.664Z,5.60
2022-10-29T13:28:46.726Z,6.50
2022-10-29T13:31:43.470Z,6.00
2022-10-29T13:34:11.265Z,5.70
2022-10-29T13:36:39.298Z,6.10
2022-10-29T13:39:19.820Z,5.53
2022-10-29T13:41:52.064Z,5.67
2022-10-29T13:44:23.813Z,6.20
2022-10-29T13:46:57.294Z,5.67
2022-10-29T13:49:30.443Z,6.47
2022-10-29T13:52:01.457Z,7.03
2022-10-29T13:54:38.995Z,7.33
2022-10-29T13:57:15.451Z,7.20
2022-10-29T13:59:47.665Z,7.13
2022-10-29T14:02:24.586Z,6.73
2022-10-29T14:04:57.449Z,6.77
2022-10-29T14:07:31.687Z,6.97
2022-10-29T14:10:16.319Z,6.63
2022-10-29T14:12:47.315Z,7.17
2022-10-29T14:15:16.586Z,7.87
2022-10-29T14:17:45.900Z,7.67
2022-10-29T14:20:22.513Z,7.17
2022-10-29T14:22:50.293Z,7.10
2022-10-29T14:25:32.701Z,7.43
2022-10-29T14:28:25.679Z,7.57
2022-10-29T14:31:02.490Z,7.77
2022-10-29T14:33:33.838Z,7.47
2022-10-29T14:36:12.707Z,6.87
2022-10-29T14:38:47.989Z,7.60
2022-10-29T14:41:16.643Z,6.60
2022-10-29T14:43:46.653Z,6.80
2022-10-29T14:46:22.139Z,7.30
2022-10-29T14:49:00.654Z,6.63
2022-10-29T14:51:30.402Z,6.83
2022-10-29T14:54:02.678Z,6.43
2022-10-29T14:56:36.532Z,7.60
2022-10-29T14:59:11.432Z,7.33
2022-10-29T15:01:47.695Z,7.30
2022-10-29T15:04:26.138Z,7.70
2022-10-29T15:06:56.832Z,8.37
2022-10-29T15:09:28.400Z,7.73
2022-10-29T15:12:01.738Z,7.77
2022-10-29T15:14:36.551Z,7.57
2022-10-29T15:17:11.446Z,7.63
2022-10-29T15:19:46.070Z,7.33
2022-10-29T15:22:20.564Z,7.13
2022-10-29T15:24:51.604Z,7.53
2022-10-29T15:27:21.923Z,6.93
2022-10-29T15:29:50.508Z,7.27
2022-10-29T15:32:18.503Z,7.03
2022-10-29T15:34:53.289Z,6.77
2022-10-29T15:37:25.767Z,7.07
2022-10-29T15:40:03.293Z,6.53
2022-10-29T15:42:33.230Z,7.63
2022-10-29T15:45:19.471Z,7.17
2022-10-29T15:47:49.593Z,7.13
2022-10-29T15:50:21.571Z,7.77
2022-10-29T15:52:54.137Z,7.40
2022-10-29T15:55:26.897Z,8.07
2022-10-29T15:58:00.576Z,7.80
2022-10-29T16:00:29.517Z,7.77
2022-10-29T16:03:03.398Z,8.10
2022-10-29T16:05:32.853Z,8.00
2022-10-29T16:08:03.286Z,8.70
2022-10-29T16:10:31.401Z,8.13
2022-10-29T16:13:00.208Z,9.50
2022-10-29T16:18:00.989Z,11.70
2022-10-29T16:20:28.865Z,11.47
2022-10-29T16:22:58.223Z,11.13
2022-10-29T16:25:27.851Z,10.63
2022-10-29T16:27:56.304Z,9.27
2022-10-29T16:30:24.936Z,9.90
2022-10-29T16:32:53.397Z,10.23
2022-10-29T16:35:23.067Z,11.13
2022-10-29T16:37:52.106Z,11.17
2022-10-29T16:40:23.462Z,12.17
2022-10-29T16:42:51.761Z,12.57
2022-10-29T16:45:22.393Z,12.37
2022-10-29T16:47:51.942Z,12.00
2022-10-29T16:50:22.061Z,11.97
2022-10-29T16:52:56.755Z,14.87
2022-10-29T16:55:26.251Z,13.97
2022-10-29T16:57:54.504Z,13.53
2022-10-29T17:00:23.267Z,13.73
2022-10-29T17:02:51.045Z,13.83
2022-10-29T17:05:19.473Z,13.70
2022-10-29T17:07:47.259Z,17.10
2022-10-29T17:10:17.257Z,15.53
2022-10-29T17:12:46.437Z,17.43
2022-10-29T17:15:14.650Z,17.37
2022-10-29T17:17:45.497Z,17.07
2022-10-29T17:20:14.712Z,18.80
2022-10-29T17:22:42.550Z,20.47
2022-10-29T17:25:10.941Z,19.97
2022-10-29T17:27:39.421Z,21.47
2022-10-29T17:30:10.860Z,21.60
2022-10-29T17:32:38.692Z,20.40
2022-10-29T17:35:07.241Z,20.60
2022-10-29T17:37:35.362Z,22.13
2022-10-29T17:40:06.951Z,21.00
2022-10-29T17:42:36.787Z,20.90
2022-10-29T17:45:10.232Z,20.00
2022-10-29T17:50:11.315Z,22.10
2022-10-29T17:52:39.042Z,22.70
2022-10-29T17:55:07.846Z,22.77
2022-10-29T17:57:36.029Z,23.53
2022-10-29T18:00:04.716Z,21.83
2022-10-29T18:02:34.031Z,22.77
2022-10-29T18:05:01.962Z,23.40
2022-10-29T18:07:29.835Z,23.23
2022-10-29T18:09:57.899Z,22.83
2022-10-29T18:12:25.880Z,23.73
2022-10-29T18:14:53.743Z,23.80
2022-10-29T18:17:21.738Z,23.83
2022-10-29T18:19:51.060Z,23.93
2022-10-29T18:22:19.124Z,24.07
2022-10-29T18:24:46.977Z,24.60
2022-10-29T18:27:14.924Z,23.77
2022-10-29T18:29:42.712Z,23.43
2022-10-29T18:32:10.488Z,24.57
2022-10-29T18:34:38.451Z,24.83
2022-10-29T18:37:07.820Z,24.80
2022-10-29T18:39:35.753Z,23.00
2022-10-29T18:42:03.596Z,23.40
2022-10-29T18:44:31.616Z,25.80
2022-10-29T18:46:59.517Z,25.03
2022-10-29T18:49:28.011Z,24.80
2022-10-29T18:51:55.936Z,24.47
2022-10-29T18:54:25.204Z,23.50
2022-10-29T18:56:53.049Z,24.20
2022-10-29T18:59:21.476Z,24.83
2022-10-29T19:01:49.332Z,24.50
2022-10-29T19:04:17.431Z,24.33
2022-10-29T19:06:45.300Z,22.90
2022-10-29T19:09:13.452Z,25.47
2022-10-29T19:11:42.747Z,23.03
2022-10-29T19:14:17.579Z,23.87
2022-10-29T19:16:45.505Z,23.63
2022-10-29T19:19:17.033Z,22.83
2022-10-29T19:21:46.495Z,23.07
2022-10-29T19:24:15.863Z,26.73
2022-10-29T19:26:45.156Z,25.50
2022-10-29T19:29:14.195Z,23.30
2022-10-29T19:31:42.518Z,22.00
2022-10-29T19:34:10.848Z,22.03
2022-10-29T19:36:40.150Z,22.57
2022-10-29T19:39:08.760Z,22.13
2022-10-29T19:41:36.830Z,21.97
2022-10-29T19:44:06.505Z,22.90
2022-10-29T19:46:34.550Z,22.37
2022-10-29T19:49:02.561Z,22.80
2022-10-29T19:51:30.567Z,22.40
2022-10-29T19:54:01.443Z,23.17
2022-10-29T19:56:29.373Z,22.07
2022-10-29T19:58:57.153Z,23.03
2022-10-29T20:01:26.506Z,22.67
2022-10-29T20:03:54.489Z,24.80
2022-10-29T20:06:22.374Z,24.57
2022-10-29T20:08:50.360Z,25.67
2022-10-29T20:11:18.362Z,25.90
2022-10-29T20:13:46.585Z,26.23
2022-10-29T20:16:16.993Z,25.40
2022-10-29T20:18:46.487Z,24.43
2022-10-29T20:21:15.159Z,22.60
2022-10-29T20:23:43.221Z,23.87
2022-10-29T20:26:11.704Z,23.90
2022-10-29T20:28:39.514Z,24.47
2022-10-29T20:31:30.142Z,23.30
2022-10-29T20:34:01.485Z,24.17
2022-10-29T20:36:32.230Z,23.33
2022-10-29T20:39:00.329Z,23.70
2022-10-29T20:41:29.150Z,23.10
2022-10-29T20:44:00.898Z,24.03
2022-10-29T20:46:29.678Z,24.47
2022-10-29T20:48:58.014Z,23.57
2022-10-29T20:51:28.374Z,24.27
2022-10-29T20:53:58.237Z,24.73
2022-10-29T20:56:28.355Z,24.60
2022-10-29T20:58:56.426Z,23.17
2022-10-29T21:01:25.899Z,23.87
2022-10-29T21:03:54.365Z,22.47
2022-10-29T21:06:22.928Z,22.33
2022-10-29T21:08:53.268Z,25.67
2022-10-29T21:11:22.810Z,24.33
2022-10-29T21:13:51.557Z,22.97
2022-10-29T21:16:21.318Z,23.90
2022-10-29T21:18:50.889Z,23.83
2022-10-29T21:21:19.819Z,24.23
2022-10-29T21:23:48.053Z,25.83
2022-10-29T21:26:19.255Z,25.10
2022-10-29T21:28:48.460Z,25.40
2022-10-29T21:31:16.672Z,25.43
2022-10-29T21:33:44.723Z,24.57
2022-10-29T21:36:14.130Z,25.70
2022-10-29T21:38:42.174Z,25.30
2022-10-29T21:41:10.027Z,24.67
2022-10-29T21:43:39.676Z,25.73
2022-10-29T21:46:08.227Z,25.37
2022-10-29T21:48:36.663Z,25.43
2022-10-29T21:51:07.060Z,25.27
2022-10-29T21:53:35.323Z,26.47
2022-10-29T21:56:04.819Z,24.67
2022-10-29T21:58:32.697Z,25.10
2022-10-29T22:01:07.181Z,24.53
2022-10-29T22:03:36.088Z,24.60
2022-10-29T22:06:05.898Z,24.93
2022-10-29T22:08:34.836Z,26.30
2022-10-29T22:11:03.699Z,24.10
2022-10-29T22:13:33.590Z,23.50
2022-10-29T22:16:02.250Z,23.37
2022-10-29T22:18:31.611Z,23.20
2022-10-29T22:21:08.079Z,22.50
2022-10-29T22:23:37.948Z,22.37
2022-10-29T22:26:06.028Z,22.77
2022-10-29T22:28:33.822Z,21.97
2022-10-29T22:31:03.254Z,22.60
2022-10-29T22:33:32.803Z,22.50
2022-10-29T22:36:09.373Z,21.93
2022-10-29T22:38:37.442Z,21.67
2022-10-29T22:41:06.617Z,20.63
2022-10-29T22:43:34.606Z,20.47
2022-10-29T22:46:02.851Z,20.33
2022-10-29T22:48:32.207Z,21.17
2022-10-29T22:51:01.594Z,21.97
2022-10-29T22:53:29.572Z,20.47
2022-10-29T22:55:57.397Z,21.03
2022-10-29T22:58:25.366Z,21.33
2022-10-29T23:01:02.709Z,21.13
2022-10-29T23:03:32.093Z,20.23
2022-10-29T23:06:01.416Z,20.47
2022-10-29T23:08:29.974Z,20.33
2022-10-29T23:10:58.051Z,19.73
2022-10-29T23:13:26.000Z,20.27
2022-10-29T23:15:54.499Z,20.50
2022-10-29T23:18:22.218Z,20.63
2022-10-29T23:20:58.761Z,20.80
2022-10-29T23:23:26.538Z,19.87
2022-10-29T23:25:57.648Z,20.07
2022-10-29T23:28:25.400Z,19.10
2022-10-29T23:30:53.975Z,18.87
2022-10-29T23:33:21.874Z,19.57
2022-10-29T23:35:51.597Z,21.93
2022-10-29T23:38:19.428Z,20.60
2022-10-29T23:40:48.371Z,24.87
2022-10-29T23:43:16.440Z,22.17
2022-10-29T23:45:44.418Z,21.80
2022-10-29T23:48:12.199Z,20.13
2022-10-29T23:50:40.318Z,20.73
2022-10-29T23:53:09.584Z,21.70
2022-10-29T23:55:37.714Z,21.37
2022-10-29T23:58:06.000Z,31.90
